createdAt,value
2018-08-24T00:00:20.986Z,69.39
2018-08-24T00:01:25.916Z,69.30
2018-08-24T00:02:29.527Z,69.54
2018-08-24T00:03:32.439Z,69.23
2018-08-24T00:04:35.317Z,68.57
2018-08-24T00:05:38.236Z,68.78
2018-08-24T00:06:44.995Z,68.63
2018-08-24T00:07:48.406Z,68.85
2018-08-24T00:08:51.408Z,69.04
2018-08-24T00:09:54.315Z,69.56
2018-08-24T00:10:57.249Z,68.61
2018-08-24T00:12:00.121Z,68.36
2018-08-24T00:13:03.014Z,68.89
2018-08-24T00:14:06.438Z,68.78
2018-08-24T00:15:09.751Z,68.63
2018-08-24T00:16:19.424Z,67.93
2018-08-24T00:17:30.826Z,68.76
2018-08-24T00:18:34.201Z,69.03
2018-08-24T00:19:38.860Z,68.59
2018-08-24T00:20:45.065Z,68.81
2018-08-24T00:21:49.677Z,68.14
2018-08-24T00:22:54.803Z,68.43
2018-08-24T00:23:58.634Z,68.08
2018-08-24T00:25:09.057Z,68.53
2018-08-24T00:26:12.914Z,69.77
2018-08-24T00:27:17.180Z,69.25
2018-08-24T00:28:21.550Z,68.91
2018-08-24T00:29:24.463Z,68.73
2018-08-24T00:30:29.446Z,68.84
2018-08-24T00:31:36.737Z,68.85
2018-08-24T00:32:40.225Z,68.62
2018-08-24T00:33:48.542Z,69.60
2018-08-24T00:34:51.394Z,69.19
2018-08-24T00:35:54.296Z,69.29
2018-08-24T00:36:57.302Z,69.19
2018-08-24T00:38:01.192Z,69.67
2018-08-24T00:39:05.812Z,70.15
2018-08-24T00:40:09.284Z,69.44
2018-08-24T00:41:17.718Z,69.89
2018-08-24T00:42:20.923Z,69.86
2018-08-24T00:43:25.026Z,69.41
2018-08-24T00:44:29.859Z,69.74
2018-08-24T00:45:33.321Z,69.32
2018-08-24T00:46:36.656Z,69.25
2018-08-24T00:47:39.585Z,68.81
2018-08-24T00:48:42.443Z,69.55
2018-08-24T00:49:45.291Z,69.35
2018-08-24T00:50:48.147Z,69.42
2018-08-24T00:51:51.265Z,69.21
2018-08-24T00:52:54.504Z,69.65
2018-08-24T00:53:58.341Z,68.55
2018-08-24T00:55:01.221Z,69.22
2018-08-24T00:56:04.055Z,68.83
2018-08-24T00:57:07.001Z,69.09
2018-08-24T00:58:09.834Z,69.51
2018-08-24T00:59:14.605Z,68.30
2018-08-24T01:00:17.492Z,69.91
2018-08-24T01:01:21.464Z,68.88
2018-08-24T01:02:24.339Z,69.37
2018-08-24T01:03:27.884Z,69.69
2018-08-24T01:04:35.709Z,69.27
2018-08-24T01:05:39.020Z,70.25
2018-08-24T01:06:41.920Z,70.24
2018-08-24T01:07:49.541Z,69.64
2018-08-24T01:08:52.417Z,70.57
2018-08-24T01:09:55.423Z,70.15
2018-08-24T01:10:58.288Z,69.83
2018-08-24T01:12:06.447Z,70.50
2018-08-24T01:13:16.548Z,70.03
2018-08-24T01:14:19.693Z,69.72
2018-08-24T01:15:22.539Z,69.54
2018-08-24T01:16:30.769Z,70.45
2018-08-24T01:17:39.498Z,69.69
2018-08-24T01:18:47.602Z,69.05
2018-08-24T01:19:50.518Z,69.05
2018-08-24T01:20:54.467Z,68.55
2018-08-24T01:21:57.353Z,69.58
2018-08-24T01:23:00.235Z,70.10
2018-08-24T01:24:03.638Z,69.73
2018-08-24T01:25:06.502Z,69.64
2018-08-24T01:26:09.630Z,70.00
2018-08-24T01:27:13.649Z,69.91
2018-08-24T01:28:19.922Z,70.48
2018-08-24T01:29:22.995Z,70.96
2018-08-24T01:30:26.295Z,71.90
2018-08-24T01:31:29.733Z,71.02
2018-08-24T01:32:34.181Z,72.07
2018-08-24T01:33:37.518Z,72.21
2018-08-24T01:34:40.418Z,72.01
2018-08-24T01:35:43.329Z,72.39
2018-08-24T01:36:46.637Z,71.34
2018-08-24T01:37:49.555Z,70.73
2018-08-24T01:38:52.461Z,71.69
2018-08-24T01:39:55.337Z,71.57
2018-08-24T01:40:58.225Z,70.71
2018-08-24T01:42:01.157Z,71.71
2018-08-24T01:43:04.483Z,71.71
2018-08-24T01:44:07.365Z,72.44
2018-08-24T01:45:10.243Z,71.20
2018-08-24T01:46:14.457Z,71.69
2018-08-24T01:47:17.330Z,71.36
2018-08-24T01:48:20.182Z,71.33
2018-08-24T01:49:23.576Z,72.61
2018-08-24T01:50:26.449Z,72.42
2018-08-24T01:51:29.351Z,72.10
2018-08-24T01:52:32.211Z,71.05
2018-08-24T01:53:35.084Z,71.31
2018-08-24T01:54:37.964Z,71.77
2018-08-24T01:55:41.236Z,72.97
2018-08-24T01:56:44.180Z,72.32
2018-08-24T01:57:47.054Z,72.90
2018-08-24T01:58:49.922Z,72.67
2018-08-24T01:59:52.829Z,72.45
2018-08-24T02:00:55.737Z,72.64
2018-08-24T02:01:59.859Z,73.06
2018-08-24T02:03:02.740Z,72.67
2018-08-24T02:04:08.011Z,73.28
2018-08-24T02:05:10.946Z,73.10
2018-08-24T02:06:14.770Z,73.81
2018-08-24T02:07:17.657Z,73.00
2018-08-24T02:08:21.023Z,73.18
2018-08-24T02:09:25.051Z,73.70
2018-08-24T02:10:28.892Z,73.22
2018-08-24T02:11:34.640Z,72.82
2018-08-24T02:12:42.457Z,73.75
2018-08-24T02:13:50.106Z,73.71
2018-08-24T02:14:53.807Z,72.78
2018-08-24T02:15:56.676Z,73.25
2018-08-24T02:16:59.569Z,72.73
2018-08-24T02:18:07.345Z,72.58
2018-08-24T02:19:12.571Z,73.40
2018-08-24T02:20:20.245Z,73.49
2018-08-24T02:21:28.310Z,72.63
2018-08-24T02:22:31.236Z,73.36
2018-08-24T02:23:34.131Z,73.46
2018-08-24T02:24:37.046Z,73.39
2018-08-24T02:25:39.991Z,72.15
2018-08-24T02:26:43.606Z,71.97
2018-08-24T02:27:46.917Z,72.62
2018-08-24T02:28:49.826Z,71.63
2018-08-24T02:29:57.065Z,71.71
2018-08-24T02:31:02.116Z,72.17
2018-08-24T02:32:05.005Z,70.89
2018-08-24T02:33:07.893Z,71.05
2018-08-24T02:34:11.233Z,72.89
2018-08-24T02:35:14.263Z,73.10
2018-08-24T02:36:17.169Z,73.15
2018-08-24T02:37:20.097Z,71.57
2018-08-24T02:38:23.009Z,71.81
2018-08-24T02:39:25.933Z,73.01
2018-08-24T02:40:29.255Z,72.62
2018-08-24T02:41:32.123Z,73.38
2018-08-24T02:42:34.996Z,73.25
2018-08-24T02:43:37.922Z,72.04
2018-08-24T02:44:40.868Z,73.69
2018-08-24T02:45:43.745Z,72.95
2018-08-24T02:46:47.070Z,72.90
2018-08-24T02:47:49.997Z,74.63
2018-08-24T02:48:54.669Z,73.75
2018-08-24T02:49:57.621Z,73.02
2018-08-24T02:51:00.579Z,73.42
2018-08-24T02:52:03.493Z,74.92
2018-08-24T02:53:06.757Z,75.15
2018-08-24T02:54:09.668Z,74.76
2018-08-24T02:55:12.586Z,74.05
2018-08-24T02:56:15.483Z,74.38
2018-08-24T02:57:18.394Z,74.35
2018-08-24T02:58:21.376Z,74.17
2018-08-24T02:59:24.623Z,74.32
2018-08-24T03:00:27.490Z,74.75
2018-08-24T03:01:30.374Z,73.67
2018-08-24T03:02:33.229Z,73.63
2018-08-24T03:03:36.090Z,73.65
2018-08-24T03:04:38.946Z,73.98
2018-08-24T03:05:42.317Z,74.29
2018-08-24T03:06:45.209Z,74.66
2018-08-24T03:07:48.096Z,73.90
2018-08-24T03:08:50.970Z,74.67
2018-08-24T03:09:53.912Z,74.62
2018-08-24T03:10:56.777Z,74.17
2018-08-24T03:12:00.134Z,75.47
2018-08-24T03:13:03.041Z,74.96
2018-08-24T03:14:05.925Z,74.74
2018-08-24T03:15:08.825Z,75.86
2018-08-24T03:16:11.803Z,75.90
2018-08-24T03:17:20.071Z,78.33
2018-08-24T03:18:22.971Z,78.63
2018-08-24T03:19:25.862Z,80.03
2018-08-24T03:20:28.792Z,80.56
2018-08-24T03:21:31.713Z,81.38
2018-08-24T03:22:34.579Z,82.56
2018-08-24T03:23:37.870Z,82.98
2018-08-24T03:24:41.571Z,82.67
2018-08-24T03:25:44.453Z,82.64
2018-08-24T03:26:47.363Z,82.70
2018-08-24T03:27:50.263Z,82.87
2018-08-24T03:28:53.147Z,83.69
2018-08-24T03:29:56.599Z,83.27
2018-08-24T03:30:59.477Z,83.80
2018-08-24T03:32:02.374Z,83.23
2018-08-24T03:33:05.258Z,83.09
2018-08-24T03:34:08.122Z,84.45
2018-08-24T03:35:10.977Z,83.93
2018-08-24T03:36:14.202Z,85.78
2018-08-24T03:37:17.098Z,84.69
2018-08-24T03:38:19.973Z,85.02
2018-08-24T03:40:20.518Z,85.77
2018-08-24T03:41:23.498Z,83.61
2018-08-24T03:42:26.641Z,83.70
2018-08-24T03:43:29.503Z,83.92
2018-08-24T03:44:32.421Z,83.10
2018-08-24T03:45:35.331Z,83.00
2018-08-24T03:46:38.191Z,83.57
2018-08-24T03:47:41.085Z,82.11
2018-08-24T03:48:44.388Z,82.64
2018-08-24T03:49:47.314Z,82.80
2018-08-24T03:50:50.169Z,82.28
2018-08-24T03:51:53.077Z,82.43
2018-08-24T03:52:55.949Z,82.30
2018-08-24T03:53:58.859Z,82.31
2018-08-24T03:55:01.730Z,81.40
2018-08-24T03:56:05.308Z,82.50
2018-08-24T03:57:08.192Z,82.13
2018-08-24T03:58:11.897Z,80.69
2018-08-24T03:59:14.783Z,80.26
2018-08-24T04:00:18.735Z,82.05
2018-08-24T04:01:22.513Z,81.34
2018-08-24T04:02:25.398Z,83.20
2018-08-24T04:03:28.910Z,81.54
2018-08-24T04:04:31.802Z,82.81
2018-08-24T04:05:34.715Z,82.02
2018-08-24T04:06:37.935Z,82.80
2018-08-24T04:07:41.305Z,81.61
2018-08-24T04:08:44.185Z,80.39
2018-08-24T04:09:47.033Z,80.50
2018-08-24T04:10:49.938Z,79.70
2018-08-24T04:11:52.827Z,81.21
2018-08-24T04:12:56.643Z,80.46
2018-08-24T04:13:59.552Z,79.66
2018-08-24T04:15:02.423Z,79.87
2018-08-24T04:16:05.306Z,79.39
2018-08-24T04:17:12.965Z,79.67
2018-08-24T04:18:16.295Z,80.42
2018-08-24T04:19:23.671Z,78.99
2018-08-24T04:20:27.532Z,79.68
2018-08-24T04:21:30.457Z,81.00
2018-08-24T04:22:33.365Z,80.15
2018-08-24T04:23:36.270Z,81.12
2018-08-24T04:24:39.511Z,81.01
2018-08-24T04:25:42.440Z,80.92
2018-08-24T04:26:45.334Z,80.81
2018-08-24T04:27:48.234Z,81.06
2018-08-24T04:28:51.125Z,80.47
2018-08-24T04:29:54.016Z,81.84
2018-08-24T04:30:57.308Z,81.31
2018-08-24T04:32:00.225Z,81.66
2018-08-24T04:33:03.101Z,82.01
2018-08-24T04:34:06.427Z,80.81
2018-08-24T04:35:09.326Z,80.90
2018-08-24T04:36:12.254Z,79.50
2018-08-24T04:37:15.575Z,80.86
2018-08-24T04:38:18.474Z,80.20
2018-08-24T04:39:21.542Z,80.30
2018-08-24T04:40:25.135Z,80.67
2018-08-24T04:41:28.126Z,81.02
2018-08-24T04:42:31.538Z,81.22
2018-08-24T04:43:34.883Z,80.11
2018-08-24T04:44:37.777Z,80.23
2018-08-24T04:45:43.386Z,80.29
2018-08-24T04:46:46.247Z,80.32
2018-08-24T04:47:52.763Z,81.08
2018-08-24T04:48:55.698Z,80.76
2018-08-24T04:49:59.247Z,81.06
2018-08-24T04:51:02.202Z,80.42
2018-08-24T04:52:05.078Z,81.76
2018-08-24T04:53:09.450Z,81.52
2018-08-24T04:54:12.425Z,81.09
2018-08-24T04:55:15.393Z,80.95
2018-08-24T04:56:18.668Z,80.51
2018-08-24T04:57:21.622Z,81.25
2018-08-24T04:58:24.650Z,80.85
2018-08-24T04:59:27.626Z,82.43
2018-08-24T05:00:30.546Z,82.89
2018-08-24T05:01:33.579Z,81.82
2018-08-24T05:02:36.894Z,82.14
2018-08-24T05:03:40.032Z,82.08
2018-08-24T05:04:42.914Z,82.92
2018-08-24T05:05:45.981Z,82.76
2018-08-24T05:06:48.818Z,82.15
2018-08-24T05:07:52.156Z,81.55
2018-08-24T05:08:57.765Z,81.67
2018-08-24T05:10:01.416Z,80.92
2018-08-24T05:11:04.903Z,82.37
2018-08-24T05:12:07.837Z,82.79
2018-08-24T05:13:10.903Z,80.88
2018-08-24T05:14:14.011Z,80.79
2018-08-24T05:15:17.241Z,80.70
2018-08-24T05:16:20.237Z,81.22
2018-08-24T05:17:23.102Z,80.39
2018-08-24T05:18:26.985Z,81.17
2018-08-24T05:19:30.684Z,82.74
2018-08-24T05:20:34.281Z,81.47
2018-08-24T05:21:37.737Z,82.40
2018-08-24T05:22:40.893Z,82.40
2018-08-24T05:23:43.787Z,82.20
2018-08-24T05:24:46.827Z,81.53
2018-08-24T05:25:50.348Z,81.41
2018-08-24T05:26:53.823Z,80.79
2018-08-24T05:27:56.766Z,80.90
2018-08-24T05:28:59.685Z,80.49
2018-08-24T05:30:02.558Z,80.24
2018-08-24T05:33:18.420Z,79.90
2018-08-24T05:34:21.665Z,79.71
2018-08-24T05:35:24.735Z,79.84
2018-08-24T05:36:27.688Z,79.38
2018-08-24T05:37:30.602Z,80.15
2018-08-24T05:38:33.895Z,80.39
2018-08-24T05:39:37.411Z,80.13
2018-08-24T05:40:40.602Z,79.39
2018-08-24T05:41:43.690Z,79.97
2018-08-24T05:42:46.598Z,79.61
2018-08-24T05:43:49.482Z,79.18
2018-08-24T05:44:52.692Z,81.58
2018-08-24T05:45:55.603Z,80.76
2018-08-24T05:46:58.545Z,79.97
2018-08-24T05:48:02.099Z,79.74
2018-08-24T05:49:05.676Z,80.45
2018-08-24T05:50:08.576Z,79.65
2018-08-24T05:51:11.841Z,80.66
2018-08-24T05:52:14.761Z,79.81
2018-08-24T05:53:17.805Z,79.71
2018-08-24T05:54:20.713Z,79.04
2018-08-24T05:55:24.629Z,80.34
2018-08-24T05:56:27.541Z,80.56
2018-08-24T05:57:31.009Z,80.85
2018-08-24T05:58:34.633Z,81.22
2018-08-24T05:59:37.561Z,80.42
2018-08-24T06:00:42.966Z,81.26
2018-08-24T06:01:45.902Z,80.84
2018-08-24T06:02:48.807Z,81.06
2018-08-24T06:03:52.072Z,82.43
2018-08-24T06:04:54.942Z,82.16
2018-08-24T06:06:01.798Z,81.37
2018-08-24T06:07:04.925Z,81.50
2018-08-24T06:08:08.065Z,80.45
2018-08-24T06:09:13.913Z,80.82
2018-08-24T06:10:17.483Z,80.25
2018-08-24T06:11:20.586Z,79.72
2018-08-24T06:12:23.533Z,80.33
2018-08-24T06:13:27.309Z,80.97
2018-08-24T06:14:30.514Z,81.08
2018-08-24T06:15:33.830Z,82.66
2018-08-24T06:16:40.409Z,81.58
2018-08-24T06:17:48.146Z,80.83
2018-08-24T06:18:51.082Z,82.55
2018-08-24T06:19:53.968Z,81.66
2018-08-24T06:20:57.076Z,81.13
2018-08-24T06:21:59.985Z,83.28
2018-08-24T06:23:03.353Z,80.84
2018-08-24T06:24:06.322Z,81.82
2018-08-24T06:25:09.862Z,80.97
2018-08-24T06:26:12.752Z,80.71
2018-08-24T06:27:15.819Z,80.54
2018-08-24T06:28:18.848Z,81.81
2018-08-24T06:29:22.314Z,81.24
2018-08-24T06:30:25.433Z,82.42
2018-08-24T06:31:29.430Z,81.77
2018-08-24T06:32:32.384Z,81.50
2018-08-24T06:33:35.357Z,82.66
2018-08-24T06:34:38.274Z,82.17
2018-08-24T06:35:42.389Z,81.41
2018-08-24T06:36:45.278Z,81.52
2018-08-24T06:37:48.187Z,80.17
2018-08-24T06:38:51.111Z,78.94
2018-08-24T06:39:54.035Z,78.37
2018-08-24T06:40:58.616Z,78.75
2018-08-24T06:42:02.041Z,78.10
2018-08-24T06:43:06.582Z,79.94
2018-08-24T06:44:09.504Z,82.41
2018-08-24T06:45:12.502Z,82.20
2018-08-24T06:46:15.477Z,80.70
2018-08-24T06:47:19.190Z,81.27
2018-08-24T06:48:22.544Z,80.96
2018-08-24T06:49:25.419Z,81.60
2018-08-24T06:50:28.360Z,81.43
2018-08-24T06:51:31.649Z,82.54
2018-08-24T06:52:34.681Z,81.01
2018-08-24T06:53:37.939Z,79.65
2018-08-24T06:54:41.168Z,80.52
2018-08-24T06:55:44.073Z,80.89
2018-08-24T06:56:47.249Z,80.63
2018-08-24T06:57:50.198Z,80.67
2018-08-24T06:58:56.651Z,81.68
2018-08-24T07:00:00.099Z,82.12
2018-08-24T07:01:03.673Z,82.46
2018-08-24T07:02:10.353Z,82.79
2018-08-24T07:03:13.258Z,83.15
2018-08-24T07:04:16.272Z,83.11
2018-08-24T07:05:19.251Z,82.17
2018-08-24T07:06:28.661Z,82.66
2018-08-24T07:07:32.609Z,82.31
2018-08-24T07:08:38.916Z,82.42
2018-08-24T07:09:42.420Z,83.02
2018-08-24T07:10:45.383Z,82.30
2018-08-24T07:11:50.028Z,80.54
2018-08-24T07:12:53.816Z,81.48
2018-08-24T07:13:56.971Z,81.94
2018-08-24T07:15:01.294Z,79.56
2018-08-24T07:16:04.219Z,80.97
2018-08-24T07:17:07.319Z,80.96
2018-08-24T07:18:11.222Z,80.40
2018-08-24T07:19:14.563Z,82.45
2018-08-24T07:20:17.567Z,81.73
2018-08-24T07:21:20.551Z,82.49
2018-08-24T07:22:23.512Z,82.94
2018-08-24T07:23:26.459Z,82.01
2018-08-24T07:24:29.358Z,80.71
2018-08-24T07:25:32.621Z,81.06
2018-08-24T07:26:35.566Z,80.59
2018-08-24T07:27:38.548Z,82.18
2018-08-24T07:28:41.811Z,81.20
2018-08-24T07:29:44.727Z,82.00
2018-08-24T07:30:47.717Z,81.30
2018-08-24T07:31:51.484Z,81.97
2018-08-24T07:32:54.965Z,80.95
2018-08-24T07:33:59.591Z,81.89
2018-08-24T07:35:03.113Z,81.66
2018-08-24T07:36:06.061Z,81.77
2018-08-24T07:37:08.995Z,83.09
2018-08-24T07:38:12.388Z,81.00
2018-08-24T07:39:16.092Z,81.34
2018-08-24T07:40:19.224Z,82.48
2018-08-24T07:41:23.319Z,82.70
2018-08-24T07:42:26.434Z,83.23
2018-08-24T07:43:30.343Z,82.82
2018-08-24T07:44:39.131Z,83.00
2018-08-24T07:45:42.278Z,82.65
2018-08-24T07:46:49.559Z,82.61
2018-08-24T07:49:02.114Z,79.04
2018-08-24T07:50:06.670Z,79.48
2018-08-24T07:51:10.341Z,80.17
2018-08-24T07:52:13.212Z,81.37
2018-08-24T07:53:17.333Z,81.14
2018-08-24T07:54:20.378Z,81.43
2018-08-24T07:55:24.484Z,79.58
2018-08-24T07:56:29.804Z,79.44
2018-08-24T07:57:34.004Z,79.37
2018-08-24T07:58:37.664Z,80.37
2018-08-24T07:59:40.582Z,79.44
2018-08-24T08:00:43.596Z,80.14
2018-08-24T08:01:46.536Z,80.79
2018-08-24T08:02:51.462Z,78.43
2018-08-24T08:03:54.889Z,78.70
2018-08-24T08:04:58.962Z,78.34
2018-08-24T08:06:03.765Z,77.55
2018-08-24T08:07:07.480Z,76.55
2018-08-24T08:08:10.455Z,76.71
2018-08-24T08:09:13.369Z,77.12
2018-08-24T08:10:18.554Z,76.48
2018-08-24T08:11:22.396Z,76.16
2018-08-24T08:12:25.335Z,77.52
2018-08-24T08:13:34.675Z,77.46
2018-08-24T08:14:40.376Z,77.88
2018-08-24T08:15:44.405Z,77.10
2018-08-24T08:16:47.834Z,76.52
2018-08-24T08:17:51.906Z,77.76
2018-08-24T08:18:55.505Z,78.27
2018-08-24T08:20:01.340Z,76.13
2018-08-24T08:21:04.339Z,76.88
2018-08-24T08:22:07.796Z,76.27
2018-08-24T08:23:13.099Z,76.67
2018-08-24T08:24:17.267Z,76.61
2018-08-24T08:25:20.199Z,76.75
2018-08-24T08:26:25.835Z,77.35
2018-08-24T08:27:29.814Z,77.57
2018-08-24T08:28:32.735Z,78.31
2018-08-24T08:29:40.903Z,75.61
2018-08-24T08:30:44.191Z,77.57
2018-08-24T08:31:47.352Z,77.68
2018-08-24T08:32:51.138Z,76.43
2018-08-24T08:33:54.171Z,75.72
2018-08-24T08:34:57.113Z,76.60
2018-08-24T08:36:00.556Z,77.38
2018-08-24T08:37:03.482Z,77.99
2018-08-24T08:38:06.443Z,77.47
2018-08-24T08:39:09.976Z,77.60
2018-08-24T08:40:12.925Z,77.44
2018-08-24T08:41:15.832Z,76.08
2018-08-24T08:42:22.905Z,76.37
2018-08-24T08:43:26.026Z,76.92
2018-08-24T08:44:29.756Z,77.47
2018-08-24T08:45:32.610Z,76.88
2018-08-24T08:46:35.735Z,77.29
2018-08-24T08:47:38.633Z,74.45
2018-08-24T08:48:42.595Z,73.11
2018-08-24T08:49:45.669Z,72.97
2018-08-24T08:50:48.704Z,74.43
2018-08-24T08:51:52.209Z,72.75
2018-08-24T08:52:55.130Z,72.16
2018-08-24T08:53:58.457Z,73.44
2018-08-24T08:55:01.389Z,74.15
2018-08-24T08:56:04.275Z,74.57
2018-08-24T08:57:07.217Z,73.46
2018-08-24T08:58:10.270Z,72.39
2018-08-24T08:59:13.159Z,71.52
2018-08-24T09:00:17.782Z,71.75
2018-08-24T09:01:22.157Z,72.61
2018-08-24T09:02:25.117Z,72.87
2018-08-24T09:03:28.030Z,72.25
2018-08-24T09:04:30.927Z,72.87
2018-08-24T09:05:33.965Z,71.84
2018-08-24T09:06:37.416Z,71.42
2018-08-24T09:07:40.367Z,71.30
2018-08-24T09:08:43.298Z,70.85
2018-08-24T09:09:46.256Z,72.88
2018-08-24T09:10:50.135Z,72.69
2018-08-24T09:11:53.133Z,71.37
2018-08-24T09:12:57.607Z,71.77
2018-08-24T09:14:00.677Z,72.12
2018-08-24T09:15:03.686Z,72.93
2018-08-24T09:16:06.712Z,70.99
2018-08-24T09:17:14.521Z,71.84
2018-08-24T09:18:22.321Z,70.25
2018-08-24T09:19:31.075Z,71.59
2018-08-24T09:20:38.998Z,69.21
2018-08-24T09:21:46.670Z,70.63
2018-08-24T09:22:54.473Z,69.84
2018-08-24T09:26:09.555Z,70.27
2018-08-24T09:27:17.213Z,69.44
2018-08-24T09:28:24.914Z,69.94
2018-08-24T09:29:30.639Z,70.71
2018-08-24T09:30:37.373Z,70.19
2018-08-24T09:31:42.059Z,69.29
2018-08-24T09:32:46.553Z,67.89
2018-08-24T09:33:49.560Z,68.89
2018-08-24T09:34:52.529Z,70.27
2018-08-24T09:35:56.675Z,68.47
2018-08-24T09:37:00.368Z,67.98
2018-08-24T09:38:04.555Z,69.12
2018-08-24T09:39:08.392Z,67.56
2018-08-24T09:40:11.258Z,65.37
2018-08-24T09:41:14.175Z,66.37
2018-08-24T09:42:18.004Z,64.75
2018-08-24T09:43:26.720Z,62.50
2018-08-24T09:44:31.571Z,64.26
2018-08-24T09:45:34.544Z,66.53
2018-08-24T09:46:42.230Z,66.86
2018-08-24T09:47:50.077Z,65.75
2018-08-24T09:48:58.018Z,64.98
2018-08-24T09:50:06.307Z,64.41
2018-08-24T09:51:14.333Z,65.79
2018-08-24T09:52:22.149Z,63.43
2018-08-24T09:53:30.015Z,63.20
2018-08-24T09:54:33.090Z,62.73
2018-08-24T09:55:40.288Z,63.08
2018-08-24T09:56:43.775Z,62.26
2018-08-24T09:57:48.212Z,61.51
2018-08-24T09:58:51.090Z,59.80
2018-08-24T09:59:54.347Z,62.53
2018-08-24T10:01:02.448Z,62.98
2018-08-24T10:02:10.955Z,63.14
2018-08-24T10:03:18.615Z,61.62
2018-08-24T10:04:26.442Z,61.00
2018-08-24T10:05:34.120Z,59.79
2018-08-24T10:06:41.839Z,57.96
2018-08-24T10:07:50.806Z,59.25
2018-08-24T10:08:53.730Z,61.66
2018-08-24T10:09:56.647Z,61.24
2018-08-24T10:11:00.027Z,60.69
2018-08-24T10:12:03.018Z,60.70
2018-08-24T10:13:08.569Z,61.02
2018-08-24T10:14:13.663Z,61.73
2018-08-24T10:15:16.608Z,62.59
2018-08-24T10:16:19.522Z,60.68
2018-08-24T10:17:26.598Z,61.13
2018-08-24T10:18:30.574Z,60.48
2018-08-24T10:19:34.503Z,59.80
2018-08-24T10:20:38.842Z,58.15
2018-08-24T10:21:42.782Z,58.38
2018-08-24T10:22:45.797Z,59.57
2018-08-24T10:23:48.849Z,59.45
2018-08-24T10:24:51.827Z,58.91
2018-08-24T10:25:54.867Z,58.14
2018-08-24T10:26:59.072Z,57.39
2018-08-24T10:28:02.507Z,55.87
2018-08-24T10:29:05.806Z,55.33
2018-08-24T10:30:08.754Z,54.90
2018-08-24T10:32:22.598Z,56.70
2018-08-24T10:33:29.312Z,56.17
2018-08-24T10:34:32.377Z,55.15
2018-08-24T10:35:35.383Z,56.83
2018-08-24T10:36:38.978Z,57.65
2018-08-24T10:37:42.055Z,58.83
2018-08-24T10:38:45.414Z,58.44
2018-08-24T10:39:49.330Z,59.19
2018-08-24T10:40:52.313Z,58.83
2018-08-24T10:41:55.300Z,58.46
2018-08-24T10:42:58.285Z,58.13
2018-08-24T10:44:01.242Z,57.41
2018-08-24T10:45:06.039Z,57.79
2018-08-24T10:46:09.183Z,54.88
2018-08-24T10:47:13.308Z,53.11
2018-08-24T10:48:18.385Z,55.18
2018-08-24T10:49:21.333Z,57.97
2018-08-24T10:50:27.852Z,55.21
2018-08-24T10:51:31.998Z,53.98
2018-08-24T10:52:36.601Z,53.75
2018-08-24T10:53:40.700Z,56.33
2018-08-24T10:54:44.963Z,55.12
2018-08-24T10:55:48.052Z,53.57
2018-08-24T10:56:50.855Z,53.04
2018-08-24T10:57:54.627Z,53.43
2018-08-24T10:58:58.708Z,52.18
2018-08-24T11:00:02.267Z,52.53
2018-08-24T11:01:06.661Z,52.62
2018-08-24T11:02:09.661Z,52.90
2018-08-24T11:03:12.593Z,54.99
2018-08-24T11:04:15.842Z,59.05
2018-08-24T11:05:20.446Z,59.74
2018-08-24T11:06:23.394Z,59.45
2018-08-24T11:07:27.407Z,59.88
2018-08-24T11:08:30.321Z,61.50
2018-08-24T11:09:33.230Z,63.10
2018-08-24T11:10:38.524Z,62.54
2018-08-24T11:11:41.411Z,61.78
2018-08-24T11:12:44.339Z,62.00
2018-08-24T11:13:47.222Z,62.71
2018-08-24T11:14:50.276Z,63.21
2018-08-24T11:15:53.290Z,62.67
2018-08-24T11:16:57.124Z,64.14
2018-08-24T11:18:04.813Z,63.37
2018-08-24T11:19:07.710Z,63.43
2018-08-24T11:20:10.605Z,62.23
2018-08-24T11:22:41.802Z,62.62
2018-08-24T11:23:45.122Z,63.34
2018-08-24T11:24:48.655Z,63.32
2018-08-24T11:25:51.726Z,62.20
2018-08-24T11:26:54.734Z,60.51
2018-08-24T11:27:57.685Z,60.35
2018-08-24T11:29:01.986Z,58.21
2018-08-24T11:30:06.165Z,55.95
2018-08-24T11:31:09.176Z,57.80
2018-08-24T11:32:13.468Z,58.52
2018-08-24T11:33:16.438Z,58.28
2018-08-24T11:34:19.467Z,58.96
2018-08-24T11:35:23.903Z,57.34
2018-08-24T11:36:26.905Z,57.22
2018-08-24T11:37:31.137Z,58.17
2018-08-24T11:38:35.259Z,57.24
2018-08-24T11:39:38.169Z,57.32
2018-08-24T11:40:41.076Z,56.08
2018-08-24T11:41:45.655Z,56.41
2018-08-24T11:42:48.791Z,56.01
2018-08-24T11:43:51.932Z,57.37
2018-08-24T11:44:55.784Z,56.84
2018-08-24T11:45:59.315Z,54.38
2018-08-24T11:47:02.548Z,53.37
2018-08-24T11:48:05.962Z,53.99
2018-08-24T11:49:09.010Z,54.23
2018-08-24T11:50:12.610Z,54.77
2018-08-24T11:51:16.562Z,55.91
2018-08-24T11:52:21.385Z,54.06
2018-08-24T11:53:24.791Z,55.49
2018-08-24T11:54:29.354Z,55.71
2018-08-24T11:55:33.205Z,54.47
2018-08-24T11:56:36.154Z,52.88
2018-08-24T11:57:39.657Z,52.59
2018-08-24T11:58:43.379Z,52.65
2018-08-24T11:59:46.377Z,54.85
2018-08-24T12:00:51.416Z,54.01
2018-08-24T12:01:54.349Z,54.76
2018-08-24T12:02:58.267Z,54.98
2018-08-24T12:04:01.796Z,54.98
2018-08-24T12:05:04.766Z,53.84
2018-08-24T12:06:08.657Z,53.69
2018-08-24T12:07:12.220Z,53.72
2018-08-24T12:08:15.325Z,51.16
2018-08-24T12:09:18.265Z,51.83
2018-08-24T12:10:21.295Z,51.18
2018-08-24T12:11:24.219Z,54.55
2018-08-24T12:12:27.686Z,54.47
2018-08-24T12:13:30.701Z,54.81
2018-08-24T12:14:33.687Z,54.74
2018-08-24T12:15:36.697Z,54.54
2018-08-24T12:16:39.837Z,54.33
2018-08-24T12:17:42.956Z,55.50
2018-08-24T12:18:46.461Z,56.02
2018-08-24T12:19:49.444Z,55.21
2018-08-24T12:20:52.977Z,52.82
2018-08-24T12:21:55.868Z,53.22
2018-08-24T12:23:00.696Z,53.46
2018-08-24T12:24:03.790Z,52.62
2018-08-24T12:25:10.694Z,52.30
2018-08-24T12:26:15.626Z,52.36
2018-08-24T12:27:18.799Z,52.06
2018-08-24T12:28:21.795Z,53.47
2018-08-24T12:29:26.696Z,54.23
2018-08-24T12:30:29.879Z,54.08
2018-08-24T12:31:33.751Z,53.33
2018-08-24T12:32:36.675Z,51.19
2018-08-24T12:33:40.183Z,48.89
2018-08-24T12:34:43.897Z,48.93
2018-08-24T12:35:46.848Z,50.44
2018-08-24T12:36:51.208Z,49.84
2018-08-24T12:37:55.767Z,48.81
2018-08-24T12:38:59.457Z,48.72
2018-08-24T12:40:02.700Z,47.09
2018-08-24T12:41:07.330Z,46.62
2018-08-24T12:42:11.371Z,46.87
2018-08-24T12:43:15.803Z,46.43
2018-08-24T12:44:19.205Z,45.58
2018-08-24T12:45:22.129Z,47.72
2018-08-24T15:26:23.754Z,33.16
2018-08-24T15:27:26.822Z,32.26
2018-08-24T15:28:31.400Z,32.78
2018-08-24T15:29:34.613Z,32.44
2018-08-24T15:30:37.618Z,28.83
2018-08-24T15:31:42.486Z,28.84
2018-08-24T15:32:45.398Z,29.08
2018-08-24T15:33:48.444Z,29.16
2018-08-24T15:34:51.464Z,29.95
2018-08-24T15:35:58.550Z,29.76
2018-08-24T15:37:01.436Z,29.69
2018-08-24T15:38:04.777Z,32.24
2018-08-24T15:39:08.474Z,30.58
2018-08-24T15:40:11.389Z,32.28
2018-08-24T15:41:14.341Z,33.16
2018-08-24T15:42:17.607Z,32.82
2018-08-24T15:43:20.707Z,33.90
2018-08-24T15:44:23.903Z,34.27
2018-08-24T15:45:26.781Z,33.68
2018-08-24T15:46:29.787Z,34.14
2018-08-24T15:47:32.692Z,33.85
2018-08-24T15:48:35.680Z,34.23
2018-08-24T15:49:39.813Z,34.04
2018-08-24T15:50:43.302Z,33.54
2018-08-24T15:51:46.198Z,34.21
2018-08-24T15:52:49.750Z,33.98
2018-08-24T15:53:53.640Z,34.33
2018-08-24T15:54:56.620Z,34.33
2018-08-24T15:56:00.980Z,35.20
2018-08-24T15:57:05.703Z,34.99
2018-08-24T15:58:08.728Z,35.28
2018-08-24T15:59:11.630Z,35.47
2018-08-24T16:00:15.301Z,34.58
2018-08-24T16:01:18.161Z,34.21
2018-08-24T16:02:21.054Z,35.24
2018-08-24T16:03:24.280Z,34.72
2018-08-24T16:04:28.557Z,35.37
2018-08-24T16:05:31.499Z,36.05
2018-08-24T16:06:35.058Z,36.16
2018-08-24T16:07:39.034Z,36.80
2018-08-24T16:08:41.957Z,36.07
2018-08-24T16:09:45.304Z,36.09
2018-08-24T16:10:48.204Z,36.37
2018-08-24T16:11:51.898Z,35.49
2018-08-24T16:12:54.814Z,35.28
2018-08-24T16:13:57.844Z,35.08
2018-08-24T16:15:00.801Z,35.48
2018-08-24T16:16:04.175Z,36.18
2018-08-24T16:17:07.095Z,36.72
2018-08-24T16:18:25.445Z,36.20
2018-08-24T16:19:28.382Z,36.62
2018-08-24T16:20:31.259Z,36.21
2018-08-24T16:21:34.193Z,35.73
2018-08-24T16:22:37.471Z,35.16
2018-08-24T16:23:40.487Z,34.90
2018-08-24T16:24:43.373Z,35.56
2018-08-24T16:25:46.849Z,35.36
2018-08-24T16:26:49.767Z,34.71
2018-08-24T16:27:52.710Z,35.09
2018-08-24T16:28:56.785Z,35.57
2018-08-24T16:29:59.689Z,35.21